createdAt,value
2022-10-08T00:01:22.828Z,4.15
2022-10-08T00:03:51.925Z,3.90
2022-10-08T00:06:23.588Z,4.00
2022-10-08T00:08:55.262Z,3.15
2022-10-08T00:11:24.875Z,4.25
2022-10-08T00:13:52.782Z,4.63
2022-10-08T00:16:26.272Z,3.72
2022-10-08T00:18:54.550Z,3.95
2022-10-08T00:21:27.967Z,3.70
2022-10-08T00:23:54.539Z,4.43
2022-10-08T00:26:26.570Z,3.60
2022-10-08T00:28:55.552Z,3.78
2022-10-08T00:31:24.895Z,4.13
2022-10-08T00:33:57.285Z,3.42
2022-10-08T00:36:26.065Z,3.60
2022-10-08T00:39:00.506Z,4.03
2022-10-08T00:41:28.837Z,4.13
2022-10-08T00:43:57.784Z,3.45
2022-10-08T00:46:29.660Z,3.13
2022-10-08T00:49:12.094Z,3.53
2022-10-08T00:51:43.938Z,3.83
2022-10-08T00:54:11.567Z,2.92
2022-10-08T00:56:38.719Z,3.30
2022-10-08T00:59:06.432Z,3.53
2022-10-08T01:01:33.151Z,2.92
2022-10-08T01:04:03.946Z,3.08
2022-10-08T01:06:34.264Z,3.38
2022-10-08T01:09:18.909Z,3.20
2022-10-08T01:12:13.826Z,2.95
2022-10-08T01:15:00.720Z,3.25
2022-10-08T01:17:41.140Z,3.28
2022-10-08T01:20:20.835Z,3.60
2022-10-08T01:22:52.740Z,3.25
2022-10-08T01:25:33.431Z,3.35
2022-10-08T01:28:09.842Z,2.97
2022-10-08T01:30:38.551Z,3.83
2022-10-08T01:33:16.295Z,3.80
2022-10-08T01:35:47.937Z,3.45
2022-10-08T01:38:16.864Z,4.07
2022-10-08T01:40:44.507Z,3.70
2022-10-08T01:43:13.073Z,3.55
2022-10-08T01:45:43.361Z,4.35
2022-10-08T01:48:14.832Z,3.72
2022-10-08T01:50:46.415Z,4.40
2022-10-08T01:53:16.087Z,3.85
2022-10-08T01:55:46.287Z,3.78
2022-10-08T01:58:16.006Z,3.20
2022-10-08T02:00:43.037Z,3.20
2022-10-08T02:03:11.251Z,3.55
2022-10-08T02:05:41.078Z,3.85
2022-10-08T02:08:07.612Z,3.60
2022-10-08T02:10:33.977Z,3.78
2022-10-08T02:13:00.377Z,2.92
2022-10-08T02:15:35.577Z,3.55
2022-10-08T02:18:15.092Z,3.40
2022-10-08T02:20:59.611Z,3.10
2022-10-08T02:25:59.784Z,3.28
2022-10-08T02:28:57.954Z,3.53
2022-10-08T02:31:36.858Z,3.03
2022-10-08T02:34:24.094Z,3.25
2022-10-08T02:36:55.770Z,3.55
2022-10-08T02:39:23.796Z,3.50
2022-10-08T02:41:53.504Z,3.17
2022-10-08T02:44:24.375Z,3.25
2022-10-08T02:46:52.692Z,2.88
2022-10-08T02:49:27.483Z,3.35
2022-10-08T02:51:54.554Z,2.85
2022-10-08T02:54:23.003Z,2.72
2022-10-08T02:56:58.078Z,2.97
2022-10-08T02:59:25.111Z,3.20
2022-10-08T03:01:57.257Z,2.72
2022-10-08T03:04:30.526Z,3.10
2022-10-08T03:06:57.387Z,2.47
2022-10-08T03:09:24.663Z,2.83
2022-10-08T03:11:52.818Z,3.30
2022-10-08T03:14:20.442Z,2.88
2022-10-08T03:16:47.746Z,2.80
2022-10-08T03:19:15.857Z,2.72
2022-10-08T03:21:43.726Z,2.88
2022-10-08T03:24:11.335Z,2.85
2022-10-08T03:26:38.109Z,2.47
2022-10-08T03:29:04.960Z,2.70
2022-10-08T03:31:31.904Z,2.70
2022-10-08T03:33:58.416Z,3.15
2022-10-08T03:36:25.582Z,2.85
2022-10-08T03:38:52.195Z,3.15
2022-10-08T03:41:18.959Z,2.78
2022-10-08T03:43:45.489Z,2.78
2022-10-08T03:46:13.432Z,2.97
2022-10-08T03:48:40.520Z,2.95
2022-10-08T03:51:10.560Z,2.58
2022-10-08T03:53:37.956Z,2.50
2022-10-08T03:56:10.465Z,2.83
2022-10-08T03:58:37.196Z,2.15
2022-10-08T04:01:06.105Z,2.30
2022-10-08T04:03:32.836Z,2.40
2022-10-08T04:05:59.453Z,2.75
2022-10-08T04:08:26.202Z,2.70
2022-10-08T04:10:53.207Z,2.03
2022-10-08T04:13:19.732Z,3.28
2022-10-08T04:15:50.839Z,2.22
2022-10-08T04:18:17.747Z,2.63
2022-10-08T04:20:44.190Z,2.40
2022-10-08T04:23:10.955Z,2.60
2022-10-08T04:25:37.513Z,2.60
2022-10-08T04:28:04.578Z,2.67
2022-10-08T04:30:31.606Z,2.55
2022-10-08T04:32:58.421Z,2.75
2022-10-08T04:35:24.744Z,2.35
2022-10-08T04:37:51.046Z,2.97
2022-10-08T04:40:17.378Z,2.22
2022-10-08T04:42:43.907Z,2.35
2022-10-08T04:45:10.426Z,2.60
2022-10-08T04:47:36.735Z,2.40
2022-10-08T04:50:03.146Z,3.45
2022-10-08T04:52:31.452Z,2.55
2022-10-08T04:54:57.787Z,3.28
2022-10-08T04:57:24.188Z,2.50
2022-10-08T05:00:16.637Z,2.45
2022-10-08T05:02:36.893Z,2.53
2022-10-08T05:05:03.572Z,2.70
2022-10-08T05:07:29.894Z,3.00
2022-10-08T05:09:56.353Z,2.70
2022-10-08T05:12:22.687Z,2.50
2022-10-08T05:14:49.026Z,2.30
2022-10-08T05:17:15.341Z,2.55
2022-10-08T05:19:41.652Z,2.90
2022-10-08T05:22:07.986Z,2.28
2022-10-08T05:24:34.316Z,2.70
2022-10-08T05:27:00.639Z,2.58
2022-10-08T05:29:29.634Z,2.47
2022-10-08T05:31:56.378Z,2.97
2022-10-08T05:34:22.707Z,2.17
2022-10-08T05:36:49.035Z,2.60
2022-10-08T05:39:15.491Z,2.25
2022-10-08T05:41:41.838Z,2.70
2022-10-08T05:44:10.075Z,2.55
2022-10-08T05:46:37.103Z,2.40
2022-10-08T05:49:05.981Z,2.72
2022-10-08T05:51:32.525Z,2.90
2022-10-08T05:53:59.937Z,2.42
2022-10-08T05:56:27.402Z,2.97
2022-10-08T05:58:54.291Z,2.88
2022-10-08T06:01:23.990Z,2.40
2022-10-08T06:03:54.887Z,2.78
2022-10-08T06:06:22.642Z,2.65
2022-10-08T06:08:57.658Z,3.25
2022-10-08T06:11:24.975Z,3.08
2022-10-08T06:13:55.192Z,3.35
2022-10-08T06:16:22.215Z,3.05
2022-10-08T06:18:48.822Z,2.58
2022-10-08T06:21:17.706Z,3.22
2022-10-08T06:23:51.532Z,2.78
2022-10-08T06:26:18.630Z,2.65
2022-10-08T06:28:45.625Z,2.92
2022-10-08T06:31:12.411Z,2.72
2022-10-08T06:33:39.031Z,2.97
2022-10-08T06:36:17.464Z,2.72
2022-10-08T06:38:44.174Z,3.20
2022-10-08T06:41:10.488Z,4.18
2022-10-08T06:43:36.796Z,4.07
2022-10-08T06:46:06.411Z,4.22
2022-10-08T06:48:33.383Z,4.18
2022-10-08T06:51:05.327Z,4.57
2022-10-08T06:53:32.289Z,3.88
2022-10-08T06:56:00.131Z,3.70
2022-10-08T06:58:26.496Z,3.03
2022-10-08T07:01:29.032Z,3.40
2022-10-08T07:04:00.494Z,3.25
2022-10-08T07:06:27.039Z,3.08
2022-10-08T07:08:58.023Z,3.38
2022-10-08T07:11:25.067Z,3.00
2022-10-08T07:13:51.409Z,3.20
2022-10-08T07:16:21.356Z,3.10
2022-10-08T07:18:49.570Z,3.55
2022-10-08T07:21:16.790Z,3.63
2022-10-08T07:23:43.215Z,3.03
2022-10-08T07:26:13.885Z,3.40
2022-10-08T07:28:42.922Z,3.50
2022-10-08T07:31:17.834Z,3.70
2022-10-08T07:33:44.437Z,3.28
2022-10-08T07:36:21.568Z,2.92
2022-10-08T07:38:48.234Z,2.97
2022-10-08T07:41:14.912Z,3.15
2022-10-08T07:43:41.364Z,3.47
2022-10-08T07:46:09.500Z,2.90
2022-10-08T07:48:38.741Z,2.45
2022-10-08T07:51:19.471Z,2.83
2022-10-08T07:53:46.226Z,2.90
2022-10-08T07:56:14.451Z,3.08
2022-10-08T07:58:41.003Z,2.60
2022-10-08T08:01:11.001Z,3.25
2022-10-08T08:03:37.762Z,2.55
2022-10-08T08:06:07.014Z,2.70
2022-10-08T08:08:35.242Z,2.45
2022-10-08T08:11:03.212Z,2.45
2022-10-08T08:13:36.519Z,2.30
2022-10-08T08:16:17.933Z,2.50
2022-10-08T08:18:46.363Z,2.00
2022-10-08T08:21:17.800Z,2.83
2022-10-08T08:23:47.302Z,2.00
2022-10-08T08:26:22.029Z,2.38
2022-10-08T08:28:53.914Z,2.00
2022-10-08T08:31:28.680Z,2.28
2022-10-08T08:33:58.126Z,2.50
2022-10-08T08:36:32.987Z,1.80
2022-10-08T08:39:00.130Z,2.53
2022-10-08T08:41:48.266Z,2.85
2022-10-08T08:44:21.373Z,2.22
2022-10-08T08:46:52.603Z,2.22
2022-10-08T08:49:29.909Z,2.20
2022-10-08T08:51:57.265Z,3.33
2022-10-08T08:54:24.213Z,2.15
2022-10-08T08:56:51.886Z,1.90
2022-10-08T08:59:25.229Z,2.50
2022-10-08T09:01:54.254Z,2.63
2022-10-08T09:04:45.405Z,2.20
2022-10-08T09:07:15.474Z,2.63
2022-10-08T09:09:44.875Z,2.13
2022-10-08T09:12:28.842Z,2.38
2022-10-08T09:14:58.184Z,1.95
2022-10-08T09:17:31.830Z,2.38
2022-10-08T09:19:58.947Z,2.17
2022-10-08T09:22:31.250Z,2.30
2022-10-08T09:25:21.003Z,2.53
2022-10-08T09:27:56.378Z,2.30
2022-10-08T09:30:28.773Z,2.30
2022-10-08T09:32:57.338Z,2.08
2022-10-08T09:35:23.818Z,1.92
2022-10-08T09:37:51.260Z,2.63
2022-10-08T09:40:25.898Z,2.30
2022-10-08T09:43:11.700Z,2.33
2022-10-08T09:45:48.766Z,2.00
2022-10-08T09:48:26.739Z,2.13
2022-10-08T09:51:02.220Z,1.95
2022-10-08T09:53:54.935Z,1.80
2022-10-08T09:56:27.882Z,1.75
2022-10-08T09:58:57.706Z,2.08
2022-10-08T10:01:27.413Z,1.75
2022-10-08T10:04:01.118Z,1.95
2022-10-08T10:06:29.066Z,1.77
2022-10-08T10:09:05.662Z,1.67
2022-10-08T10:11:47.718Z,1.75
2022-10-08T10:14:20.457Z,1.70
2022-10-08T10:16:49.506Z,1.95
2022-10-08T10:19:19.684Z,1.83
2022-10-08T10:21:59.981Z,2.08
2022-10-08T10:24:48.249Z,2.08
2022-10-08T10:27:24.750Z,1.95
2022-10-08T10:29:56.734Z,2.13
2022-10-08T10:32:32.349Z,2.17
2022-10-08T10:35:04.190Z,2.03
2022-10-08T10:37:39.851Z,1.98
2022-10-08T10:40:18.037Z,2.30
2022-10-08T10:42:55.910Z,2.15
2022-10-08T10:45:25.458Z,2.28
2022-10-08T10:47:53.919Z,1.92
2022-10-08T10:50:30.273Z,2.10
2022-10-08T10:53:08.008Z,2.67
2022-10-08T10:56:01.138Z,2.03
2022-10-08T10:58:36.667Z,2.15
2022-10-08T11:01:15.910Z,1.70
2022-10-08T11:03:50.454Z,2.10
2022-10-08T11:06:48.536Z,2.17
2022-10-08T11:09:20.965Z,2.53
2022-10-08T11:11:52.469Z,2.33
2022-10-08T11:14:42.490Z,1.80
2022-10-08T11:17:31.395Z,2.00
2022-10-08T11:20:09.983Z,2.22
2022-10-08T11:22:46.577Z,1.90
2022-10-08T11:25:23.878Z,2.40
2022-10-08T11:27:59.518Z,1.55
2022-10-08T11:30:53.781Z,2.20
2022-10-08T11:33:20.659Z,1.83
2022-10-08T11:35:55.944Z,1.98
2022-10-08T11:38:26.886Z,2.28
2022-10-08T11:41:05.781Z,2.67
2022-10-08T11:43:54.275Z,2.13
2022-10-08T11:46:31.219Z,2.00
2022-10-08T11:49:02.132Z,2.05
2022-10-08T11:51:33.453Z,2.15
2022-10-08T11:54:14.965Z,1.92
2022-10-08T11:56:49.870Z,2.20
2022-10-08T11:59:25.806Z,2.08
2022-10-08T12:01:57.286Z,2.38
2022-10-08T12:04:30.370Z,2.00
2022-10-08T12:07:02.402Z,2.20
2022-10-08T12:10:07.051Z,2.30
2022-10-08T12:12:51.779Z,2.45
2022-10-08T12:15:40.195Z,2.08
2022-10-08T12:18:26.056Z,2.00
2022-10-08T12:21:20.658Z,2.28
2022-10-08T12:23:47.386Z,2.20
2022-10-08T12:26:15.422Z,2.03
2022-10-08T12:28:41.877Z,1.80
2022-10-08T12:31:49.698Z,2.13
2022-10-08T12:34:20.046Z,2.60
2022-10-08T12:37:01.989Z,2.70
2022-10-08T12:39:36.154Z,2.42
2022-10-08T12:42:38.789Z,2.78
2022-10-08T12:45:23.194Z,2.05
2022-10-08T12:48:03.790Z,2.25
2022-10-08T12:50:39.641Z,2.38
2022-10-08T12:53:07.598Z,1.95
2022-10-08T12:55:41.340Z,2.35
2022-10-08T12:58:23.653Z,2.35
2022-10-08T13:00:52.100Z,2.50
2022-10-08T13:03:20.127Z,2.35
2022-10-08T13:05:47.627Z,1.60
2022-10-08T13:08:30.742Z,2.47
2022-10-08T13:10:58.437Z,2.40
2022-10-08T13:13:39.951Z,1.90
2022-10-08T13:16:12.003Z,2.08
2022-10-08T13:18:41.975Z,2.08
2022-10-08T13:21:31.343Z,2.38
2022-10-08T13:23:59.148Z,1.80
2022-10-08T13:26:37.344Z,2.28
2022-10-08T13:29:21.932Z,1.95
2022-10-08T13:32:13.314Z,1.67
2022-10-08T13:34:39.697Z,1.73
2022-10-08T13:37:09.353Z,1.70
2022-10-08T13:39:37.693Z,1.38
2022-10-08T13:42:10.254Z,2.28
2022-10-08T13:44:38.215Z,1.60
2022-10-08T13:47:04.939Z,1.60
2022-10-08T13:49:34.288Z,1.83
2022-10-08T13:52:01.093Z,1.50
2022-10-08T13:54:30.162Z,1.65
2022-10-08T13:56:56.959Z,1.70
2022-10-08T13:59:27.037Z,1.73
2022-10-08T14:01:56.801Z,1.73
2022-10-08T14:04:23.166Z,1.63
2022-10-08T14:06:51.221Z,1.50
2022-10-08T14:09:19.707Z,1.95
2022-10-08T14:11:47.648Z,1.50
2022-10-08T14:14:15.105Z,1.55
2022-10-08T14:16:42.296Z,1.80
2022-10-08T14:19:12.129Z,2.47
2022-10-08T14:21:39.699Z,1.42
2022-10-08T14:24:06.489Z,1.88
2022-10-08T14:26:33.103Z,1.60
2022-10-08T14:29:00.246Z,1.52
2022-10-08T14:31:28.037Z,2.10
2022-10-08T14:33:55.106Z,1.75
2022-10-08T14:36:25.991Z,1.67
2022-10-08T14:38:52.424Z,2.03
2022-10-08T14:41:18.878Z,1.33
2022-10-08T14:43:47.792Z,1.75
2022-10-08T14:46:14.247Z,1.95
2022-10-08T14:48:40.861Z,1.75
2022-10-08T14:51:07.244Z,1.40
2022-10-08T14:53:33.663Z,1.63
2022-10-08T14:56:12.200Z,1.63
2022-10-08T14:58:39.087Z,1.50
2022-10-08T15:01:06.077Z,1.42
2022-10-08T15:03:32.508Z,1.67
2022-10-08T15:05:59.945Z,1.70
2022-10-08T15:08:27.045Z,1.58
2022-10-08T15:10:53.364Z,1.80
2022-10-08T15:13:19.870Z,1.45
2022-10-08T15:15:46.406Z,2.00
2022-10-08T15:18:12.762Z,1.60
2022-10-08T15:20:39.229Z,2.10
2022-10-08T15:23:05.685Z,1.77
2022-10-08T15:25:32.019Z,1.85
2022-10-08T15:27:58.330Z,1.77
2022-10-08T15:30:24.943Z,1.55
2022-10-08T15:32:51.564Z,1.60
2022-10-08T15:35:19.355Z,1.67
2022-10-08T15:37:46.820Z,1.98
2022-10-08T15:40:13.505Z,2.20
2022-10-08T15:42:39.814Z,1.92
2022-10-08T15:45:06.482Z,1.77
2022-10-08T15:47:32.798Z,1.85
2022-10-08T15:49:59.678Z,1.52
2022-10-08T15:52:26.435Z,1.60
2022-10-08T15:54:52.994Z,1.80
2022-10-08T15:57:19.584Z,1.65
2022-10-08T15:59:45.911Z,1.92
2022-10-08T16:02:17.160Z,1.63
2022-10-08T16:04:46.090Z,2.30
2022-10-08T16:07:12.398Z,1.83
2022-10-08T16:09:38.716Z,2.08
2022-10-08T16:12:05.106Z,2.78
2022-10-08T16:14:31.446Z,2.10
2022-10-08T16:16:57.823Z,2.20
2022-10-08T16:19:25.806Z,1.50
2022-10-08T16:21:54.433Z,1.70
2022-10-08T16:24:20.889Z,1.73
2022-10-08T16:26:48.620Z,1.73
2022-10-08T16:29:15.893Z,1.77
2022-10-08T16:31:43.195Z,1.90
2022-10-08T16:34:17.730Z,1.80
2022-10-08T16:36:45.944Z,3.97
2022-10-08T16:39:13.494Z,4.63
2022-10-08T16:41:39.978Z,3.97
2022-10-08T16:44:12.418Z,2.95
2022-10-08T16:46:41.627Z,3.22
2022-10-08T16:49:13.446Z,3.47
2022-10-08T16:51:40.297Z,2.83
2022-10-08T16:54:08.510Z,2.60
2022-10-08T16:56:37.066Z,2.60
2022-10-08T16:59:06.889Z,2.50
2022-10-08T17:01:34.023Z,2.33
2022-10-08T17:04:00.503Z,2.00
2022-10-08T17:06:28.947Z,2.28
2022-10-08T17:08:55.265Z,2.05
2022-10-08T17:11:22.230Z,1.50
2022-10-08T17:13:50.775Z,1.83
2022-10-08T17:16:18.822Z,1.60
2022-10-08T17:18:45.348Z,2.20
2022-10-08T17:21:13.042Z,1.80
2022-10-08T17:23:39.727Z,1.80
2022-10-08T17:26:08.714Z,1.90
2022-10-08T17:28:38.184Z,1.75
2022-10-08T17:31:06.101Z,2.53
2022-10-08T17:33:35.780Z,4.05
2022-10-08T17:36:09.506Z,3.38
2022-10-08T17:38:36.527Z,3.60
2022-10-08T17:41:10.567Z,3.03
2022-10-08T17:43:36.910Z,4.05
2022-10-08T17:46:11.021Z,3.25
2022-10-08T17:48:37.513Z,2.97
2022-10-08T17:51:05.173Z,3.25
2022-10-08T17:53:31.807Z,3.20
2022-10-08T17:55:59.877Z,3.15
2022-10-08T17:58:26.387Z,3.33
2022-10-08T18:00:52.722Z,2.92
2022-10-08T18:03:19.017Z,2.80
2022-10-08T18:05:58.452Z,2.97
2022-10-08T18:08:25.052Z,2.58
2022-10-08T18:10:51.413Z,2.80
2022-10-08T18:13:17.778Z,2.92
2022-10-08T18:15:44.180Z,3.00
2022-10-08T18:18:10.803Z,2.92
2022-10-08T18:20:37.137Z,2.97
2022-10-08T18:23:08.070Z,2.90
2022-10-08T18:25:35.669Z,2.83
2022-10-08T18:28:02.631Z,3.25
2022-10-08T18:30:29.983Z,3.03
2022-10-08T18:32:57.052Z,1.95
2022-10-08T18:35:24.486Z,1.88
2022-10-08T18:37:51.330Z,1.85
2022-10-08T18:40:17.689Z,2.28
2022-10-08T18:42:44.578Z,2.00
2022-10-08T18:45:11.406Z,1.75
2022-10-08T18:47:37.807Z,2.10
2022-10-08T18:50:04.386Z,2.03
2022-10-08T18:52:33.053Z,2.10
2022-10-08T18:55:00.992Z,1.67
2022-10-08T18:57:27.383Z,1.75
2022-10-08T18:59:53.726Z,1.90
2022-10-08T19:02:20.351Z,1.80
2022-10-08T19:04:48.510Z,1.83
2022-10-08T19:07:14.841Z,2.05
2022-10-08T19:09:41.218Z,2.10
2022-10-08T19:12:08.161Z,1.90
2022-10-08T19:14:34.616Z,1.50
2022-10-08T19:17:01.261Z,1.45
2022-10-08T19:19:28.119Z,1.80
2022-10-08T19:21:54.929Z,1.83
2022-10-08T19:24:23.480Z,1.88
2022-10-08T19:26:50.118Z,2.10
2022-10-08T19:29:19.391Z,2.10
2022-10-08T19:31:49.929Z,2.20
2022-10-08T19:34:19.229Z,2.17
2022-10-08T19:36:46.231Z,2.50
2022-10-08T19:39:15.031Z,1.40
2022-10-08T19:41:43.999Z,1.77
2022-10-08T19:44:11.652Z,1.90
2022-10-08T19:46:38.357Z,1.98
2022-10-08T19:49:06.083Z,1.90
2022-10-08T19:51:33.307Z,2.47
2022-10-08T19:54:00.427Z,2.30
2022-10-08T19:56:27.890Z,2.35
2022-10-08T19:58:54.749Z,2.53
2022-10-08T20:01:23.253Z,2.28
2022-10-08T20:03:52.370Z,2.80
2022-10-08T20:06:24.227Z,1.95
2022-10-08T20:08:52.823Z,1.98
2022-10-08T20:11:19.594Z,1.92
2022-10-08T20:13:47.924Z,1.90
2022-10-08T20:16:22.666Z,2.08
2022-10-08T20:18:59.163Z,1.77
2022-10-08T20:21:26.297Z,1.70
2022-10-08T20:23:53.071Z,1.60
2022-10-08T20:26:29.963Z,1.70
2022-10-08T20:29:01.337Z,1.83
2022-10-08T20:31:39.092Z,1.80
2022-10-08T20:34:08.283Z,2.00
2022-10-08T20:36:34.806Z,2.40
2022-10-08T20:39:01.992Z,1.95
2022-10-08T20:41:31.283Z,3.30
2022-10-08T20:44:02.936Z,2.13
2022-10-08T20:46:30.862Z,2.17
2022-10-08T20:48:57.698Z,2.50
2022-10-08T20:51:26.175Z,2.30
2022-10-08T20:54:00.663Z,2.33
2022-10-08T20:56:28.411Z,2.55
2022-10-08T20:58:55.179Z,2.30
2022-10-08T21:01:32.703Z,1.70
2022-10-08T21:04:00.559Z,1.60
2022-10-08T21:06:29.552Z,1.88
2022-10-08T21:08:57.285Z,2.33
2022-10-08T21:11:25.967Z,2.50
2022-10-08T21:13:52.786Z,2.20
2022-10-08T21:16:21.934Z,2.40
2022-10-08T21:18:49.645Z,2.10
2022-10-08T21:21:16.619Z,2.05
2022-10-08T21:23:42.937Z,2.33
2022-10-08T21:26:17.776Z,2.47
2022-10-08T21:28:45.869Z,3.15
2022-10-08T21:31:13.328Z,2.33
2022-10-08T21:33:44.291Z,3.22
2022-10-08T21:36:13.768Z,2.65
2022-10-08T21:38:40.278Z,2.65
2022-10-08T21:41:14.855Z,3.47
2022-10-08T21:43:43.471Z,2.97
2022-10-08T21:46:12.052Z,2.92
2022-10-08T21:48:38.947Z,2.45
2022-10-08T21:51:17.576Z,2.88
2022-10-08T21:53:45.766Z,2.72
2022-10-08T21:56:14.033Z,3.08
2022-10-08T21:58:42.679Z,2.63
2022-10-08T22:01:30.549Z,2.95
2022-10-08T22:03:57.865Z,3.25
2022-10-08T22:06:24.475Z,2.58
2022-10-08T22:08:50.983Z,2.70
2022-10-08T22:11:18.067Z,2.83
2022-10-08T22:13:44.416Z,2.65
2022-10-08T22:16:12.792Z,2.28
2022-10-08T22:18:39.729Z,2.10
2022-10-08T22:21:12.801Z,2.50
2022-10-08T22:23:39.139Z,2.15
2022-10-08T22:26:14.464Z,1.95
2022-10-08T22:28:41.383Z,2.00
2022-10-08T22:31:09.383Z,2.65
2022-10-08T22:33:36.395Z,2.13
2022-10-08T22:36:10.050Z,2.15
2022-10-08T22:38:38.521Z,2.10
2022-10-08T22:41:09.997Z,2.38
2022-10-08T22:43:41.267Z,2.13
2022-10-08T22:46:10.273Z,1.83
2022-10-08T22:48:36.827Z,2.03
2022-10-08T22:51:21.718Z,1.65
2022-10-08T22:53:48.750Z,1.80
2022-10-08T22:56:23.438Z,1.58
2022-10-08T22:58:50.500Z,1.67
2022-10-08T23:01:19.313Z,1.85
2022-10-08T23:03:46.086Z,1.65
2022-10-08T23:06:26.880Z,1.48
2022-10-08T23:09:01.680Z,1.70
2022-10-08T23:11:28.854Z,1.73
2022-10-08T23:13:56.945Z,2.35
2022-10-08T23:16:24.543Z,2.15
2022-10-08T23:19:02.681Z,1.70
2022-10-08T23:21:29.600Z,2.42
2022-10-08T23:23:56.427Z,1.80
2022-10-08T23:26:23.385Z,1.83
2022-10-08T23:28:51.432Z,2.03
2022-10-08T23:31:19.776Z,2.25
2022-10-08T23:33:48.380Z,2.13
2022-10-08T23:36:17.174Z,2.10
2022-10-08T23:38:43.607Z,2.15
2022-10-08T23:41:11.066Z,2.03
2022-10-08T23:43:42.751Z,2.50
2022-10-08T23:46:10.719Z,2.00
2022-10-08T23:48:37.235Z,2.47
2022-10-08T23:51:04.893Z,1.98
2022-10-08T23:53:31.885Z,2.75
2022-10-08T23:55:58.707Z,2.47
2022-10-08T23:58:25.262Z,2.08
